Temp: 13.7°C   Baro: 1017.6mb
  Wind: 6.9mph   Dir: SW (218°)
  Rain: 0.0mm (0.0mm/hr)
  Solar: 0W/m2  Hum: 86%

Historic data

Bath Spa Weather Station Historical Data
Daily Summary for December 31, 2019 Units:  Metric    English   Both
Daily Weekly Monthly Yearly Custom
  High: Low: Average:
Temperature: 8.9 °C 3.3 °C 6.6 °C
Dew Point: 7.3 °C 2.4 °C 5.3 °C
Humidity: 97% 84% 92%
Wind Speed: 16.1km/h 0km/h 5.5km/h
Wind Gust: 27.4km/h - -
Wind- - SE
Pressure: 1031.4 hPa 1029.3 hPa -
Precipitation: 0.25 mm    
Historical Graphs
 
 
Tabular Data for December 31, 2019
Time Temperature Dew Point Pressure Wind Wind Speed Wind Gust Humidity Rainfall Rate (Hourly) solar
00:09 4.7 °C 3.8 °C 1029.3 hPa Calm   3.2 km/h 94% 0 mm 0 W/m2
00:14 4.7 °C 3.8 °C 1029.3 hPa NNW 0.6 km/h 1.6 km/h 94% 0 mm 0 W/m2
00:19 4.7 °C 3.8 °C 1029.3 hPa Calm   1.6 km/h 94% 0 mm 0 W/m2
00:24 4.5 °C 3.6 °C 1029.7 hPa Calm   1.6 km/h 94% 0 mm 0 W/m2
00:29 4.4 °C 3.5 °C 1029.3 hPa Calm     94% 0 mm 0 W/m2
00:34 4.4 °C 3.5 °C 1029.3 hPa Calm     94% 0 mm 0 W/m2
00:39 4.3 °C 3.4 °C 1029.3 hPa NNW 1 km/h 3.2 km/h 94% 0 mm 0 W/m2
00:44 4.3 °C 3.4 °C 1029.3 hPa NNW 0.6 km/h 3.2 km/h 94% 0 mm 0 W/m2
00:49 4.2 °C 3.3 °C 1029.3 hPa NNW 1.1 km/h 3.2 km/h 94% 0 mm 0 W/m2
00:54 4.2 °C 3.5 °C 1029.3 hPa NNW 0.8 km/h 1.6 km/h 95% 0 mm 0 W/m2
00:59 4.1 °C 3.3 °C 1029.3 hPa NNW 0.6 km/h 1.6 km/h 94.6% 0 mm 0 W/m2
01:04 4.1 °C 3.2 °C 1029.3 hPa Calm   1.6 km/h 94% 0 mm 0 W/m2
01:09 3.8 °C 2.9 °C 1029.3 hPa NNW 0.3 km/h 1.6 km/h 94% 0 mm 0 W/m2
01:14 3.7 °C 2.8 °C 1029.3 hPa Calm   1.6 km/h 94% 0 mm 0 W/m2
01:19 3.7 °C 2.8 °C 1029.3 hPa Calm     94% 0 mm 0 W/m2
01:24 3.7 °C 2.7 °C 1029.3 hPa NNW 0.6 km/h 1.6 km/h 94% 0 mm 0 W/m2
01:29 3.5 °C 2.7 °C 1029.3 hPa NNW 1.8 km/h 3.2 km/h 94.8% 0 mm 0 W/m2
01:34 3.3 °C 2.4 °C 1029.3 hPa NNW 1.9 km/h 4.8 km/h 94% 0 mm 0 W/m2
01:39 3.4 °C 2.6 °C 1029.3 hPa NNW 2.6 km/h 4.8 km/h 94.4% 0 mm 0 W/m2
01:44 3.4 °C 2.7 °C 1029.3 hPa NW 1.8 km/h 4.8 km/h 95% 0 mm 0 W/m2
01:49 3.4 °C 2.7 °C 1029.7 hPa NW 1.3 km/h 4.8 km/h 95% 0 mm 0 W/m2
01:54 3.4 °C 2.7 °C 1030 hPa NW 3.1 km/h 6.4 km/h 95% 0 mm 0 W/m2
01:59 3.3 °C 2.6 °C 1029.7 hPa WNW 0.3 km/h 3.2 km/h 95% 0 mm 0 W/m2
02:04 3.3 °C 2.6 °C 1030 hPa WNW 1.3 km/h 3.2 km/h 95% 0 mm 0 W/m2
02:09 3.3 °C 2.6 °C 1030 hPa NNW 1.4 km/h 4.8 km/h 95% 0 mm 0 W/m2
02:14 3.3 °C 2.6 °C 1030 hPa North 1.4 km/h 4.8 km/h 95% 0 mm 0 W/m2
02:19 3.3 °C 2.7 °C 1030 hPa NNE 2.1 km/h 6.4 km/h 95% 0 mm 0 W/m2
02:24 3.3 °C 2.7 °C 1030 hPa NNE 1.6 km/h 3.2 km/h 95% 0 mm 0 W/m2
02:29 3.3 °C 2.7 °C 1030 hPa NE 1.3 km/h 4.8 km/h 95% 0 mm 0 W/m2
02:34 3.3 °C 2.6 °C 1030 hPa NE 1.6 km/h 4.8 km/h 95% 0 mm 0 W/m2
02:39 3.4 °C 2.7 °C 1030 hPa NE 1.4 km/h 4.8 km/h 95% 0 mm 0 W/m2
02:44 3.4 °C 2.7 °C 1030 hPa NE 1.9 km/h 4.8 km/h 95% 0 mm 0 W/m2
02:49 3.5 °C 2.8 °C 1030 hPa ESE 2.6 km/h 4.8 km/h 95% 0 mm 0 W/m2
02:54 3.7 °C 3 °C 1030 hPa SE 4.7 km/h 8 km/h 95% 0 mm 0 W/m2
02:59 3.7 °C 3 °C 1030 hPa SE 2.1 km/h 6.4 km/h 95% 0 mm 0 W/m2
03:04 3.7 °C 2.9 °C 1030 hPa SE 2.7 km/h 6.4 km/h 95% 0 mm 0 W/m2
03:09 3.6 °C 2.9 °C 1030 hPa SE 2.6 km/h 9.7 km/h 95% 0 mm 0 W/m2
03:14 3.6 °C 2.9 °C 1029.7 hPa ESE 9.3 km/h 14.5 km/h 95% 0 mm 0 W/m2
03:19 3.7 °C 3 °C 1029.7 hPa ESE 5.1 km/h 14.5 km/h 95% 0 mm 0 W/m2
03:24 3.7 °C 2.9 °C 1030 hPa ESE 5 km/h 8 km/h 95% 0 mm 0 W/m2
03:29 3.6 °C 2.9 °C 1030.4 hPa South 2.7 km/h 6.4 km/h 95% 0 mm 0 W/m2
03:34 3.5 °C 2.8 °C 1030.7 hPa SW 2.7 km/h 6.4 km/h 95% 0 mm 0 W/m2
03:39 3.5 °C 2.8 °C 1030.7 hPa SSE 2.3 km/h 4.8 km/h 95% 0 mm 0 W/m2
03:44 3.6 °C 2.9 °C 1030.4 hPa SE 3.1 km/h 6.4 km/h 95% 0 mm 0 W/m2
03:49 3.6 °C 2.9 °C 1030.4 hPa SE 3.5 km/h 6.4 km/h 95% 0 mm 0 W/m2
03:54 3.6 °C 2.9 °C 1030.4 hPa SSE 2.4 km/h 8 km/h 95% 0 mm 0 W/m2
03:59 3.5 °C 2.8 °C 1030.4 hPa SE 2.9 km/h 4.8 km/h 95% 0 mm 0 W/m2
04:04 3.6 °C 2.8 °C 1030.4 hPa East 1.6 km/h 4.8 km/h 95% 0 mm 0 W/m2
04:09 3.7 °C 2.9 °C 1030.4 hPa ESE 1.8 km/h 6.4 km/h 95% 0 mm 0 W/m2
04:14 3.7 °C 3 °C 1030 hPa SE 2.6 km/h 4.8 km/h 95% 0 mm 0 W/m2
04:19 3.7 °C 3 °C 1030.4 hPa ESE 6.3 km/h 11.3 km/h 95.2% 0 mm 0 W/m2
04:24 3.7 °C 3.1 °C 1030 hPa ESE 3.2 km/h 8 km/h 95.5% 0 mm 0 W/m2
04:29 3.7 °C 3 °C 1030 hPa SE 3.9 km/h 9.7 km/h 95% 0 mm 0 W/m2
04:34 3.7 °C 3 °C 1030 hPa ESE 4.5 km/h 11.3 km/h 95% 0 mm 0 W/m2
04:39 3.7 °C 3.1 °C 1030 hPa SE 1.4 km/h 6.4 km/h 96% 0 mm 0 W/m2
04:44 3.8 °C 3.2 °C 1030 hPa SE 1.6 km/h 3.2 km/h 96% 0 mm 0 W/m2
04:49 3.8 °C 3.2 °C 1030 hPa East 2.9 km/h 8 km/h 96% 0 mm 0 W/m2
04:54 3.9 °C 3.3 °C 1030.4 hPa SE 3.9 km/h 8 km/h 96% 0 mm 0 W/m2
04:59 3.9 °C 3.3 °C 1030.4 hPa SSE 3.2 km/h 8 km/h 96% 0 mm 0 W/m2
05:04 4 °C 3.4 °C 1030.4 hPa SE 3.4 km/h 6.4 km/h 96% 0 mm 0 W/m2
05:09 3.9 °C 3.3 °C 1030 hPa SE 3.9 km/h 6.4 km/h 96% 0 mm 0 W/m2
05:14 3.9 °C 3.3 °C 1030.4 hPa SE 3.5 km/h 6.4 km/h 96% 0 mm 0 W/m2
05:19 3.9 °C 3.3 °C 1030.4 hPa SE 2.7 km/h 6.4 km/h 96% 0 mm 0 W/m2
05:24 3.9 °C 3.3 °C 1030.4 hPa SSE 3.2 km/h 4.8 km/h 96% 0 mm 0 W/m2
05:29 3.9 °C 3.3 °C 1030.4 hPa SSE 1.9 km/h 6.4 km/h 96% 0 mm 0 W/m2
05:34 3.9 °C 3.3 °C 1030 hPa ESE 4.8 km/h 11.3 km/h 96% 0 mm 0 W/m2
05:39 4.1 °C 3.5 °C 1030 hPa East 5 km/h 11.3 km/h 96% 0.25 mm 0 W/m2
05:44 4.2 °C 3.6 °C 1030 hPa SE 7.6 km/h 17.7 km/h 96% 0.25 mm 0 W/m2
05:49 4.2 °C 3.5 °C 1030 hPa SE 5.1 km/h 14.5 km/h 96% 0.25 mm 0 W/m2
05:54 4.2 °C 3.6 °C 1030.4 hPa SSE 3.4 km/h 11.3 km/h 96% 0.25 mm 0 W/m2
05:59 4.2 °C 3.7 °C 1030.7 hPa ESE 2.6 km/h 9.7 km/h 96% 0.25 mm 0 W/m2
06:04 4.3 °C 3.7 °C 1030.7 hPa ENE 0.8 km/h 3.2 km/h 96% 0.25 mm 0 W/m2
06:09 4.4 °C 3.8 °C 1030.4 hPa Calm   1.6 km/h 96% 0.25 mm 0 W/m2
06:14 4.3 °C 3.7 °C 1030.4 hPa ENE 0.8 km/h 1.6 km/h 96% 0.25 mm 0 W/m2
06:19 4.3 °C 3.7 °C 1030.4 hPa SE 3.9 km/h 6.4 km/h 96% 0.25 mm 0 W/m2
06:24 4.4 °C 3.8 °C 1030.4 hPa SSE 6 km/h 9.7 km/h 96% 0.25 mm 0 W/m2
06:29 4.6 °C 3.9 °C 1030.4 hPa SE 4.5 km/h 9.7 km/h 96% 0.25 mm 0 W/m2
06:34 4.6 °C 4 °C 1030.4 hPa SE 4.5 km/h 9.7 km/h 96% 0.25 mm 0 W/m2
06:39 4.6 °C 4 °C 1030.4 hPa SE 7.4 km/h 11.3 km/h 96% 0.25 mm 0 W/m2
06:44 4.6 °C 4 °C 1030.4 hPa ESE 3.9 km/h 11.3 km/h 96% 0 mm 0 W/m2
06:49 4.7 °C 4.1 °C 1030.4 hPa SE 5 km/h 9.7 km/h 96% 0 mm 0 W/m2
06:54 4.7 °C 4.1 °C 1030.4 hPa SE 4.3 km/h 8 km/h 96% 0 mm 0 W/m2
06:59 4.7 °C 4.1 °C 1030.4 hPa East 3.9 km/h 8 km/h 96% 0 mm 0 W/m2
07:04 4.8 °C 4.3 °C 1030.4 hPa ESE 5.6 km/h 9.7 km/h 96% 0 mm 0 W/m2
07:09 5 °C 4.4 °C 1030.4 hPa ESE 6.4 km/h 12.9 km/h 96% 0 mm 0 W/m2
07:14 5.1 °C 4.5 °C 1030 hPa ESE 6.8 km/h 12.9 km/h 96% 0 mm 0 W/m2
07:19 5.2 °C 4.6 °C 1030.4 hPa SE 5.3 km/h 12.9 km/h 96% 0 mm 0 W/m2
07:24 5.2 °C 4.6 °C 1030.4 hPa ESE 4.2 km/h 9.7 km/h 96% 0 mm 0 W/m2
07:29 5.2 °C 4.6 °C 1030.4 hPa ESE 4 km/h 8 km/h 96% 0 mm 0 W/m2
07:34 5.3 °C 4.7 °C 1030.4 hPa SE 6 km/h 9.7 km/h 96% 0 mm 0 W/m2
07:39 5.3 °C 4.7 °C 1030.4 hPa SE 3.9 km/h 9.7 km/h 96% 0 mm 0 W/m2
07:44 5.3 °C 4.7 °C 1030.4 hPa SE 2.3 km/h 8 km/h 96% 0 mm 0 W/m2
07:49 5.3 °C 4.7 °C 1030.4 hPa SE 4.3 km/h 12.9 km/h 96% 0 mm 0 W/m2
07:54 5.4 °C 4.8 °C 1030.4 hPa ESE 5.8 km/h 16.1 km/h 96% 0 mm 0 W/m2
07:59 5.6 °C 5 °C 1030.4 hPa ESE 6.1 km/h 14.5 km/h 96% 0 mm 0 W/m2
08:04 5.7 °C 5.1 °C 1030.4 hPa ESE 6.4 km/h 14.5 km/h 96% 0 mm 0 W/m2
08:09 5.7 °C 5.1 °C 1030.4 hPa ESE 10 km/h 17.7 km/h 96% 0 mm 0 W/m2
08:14 5.8 °C 5.2 °C 1030.7 hPa ESE 6 km/h 16.1 km/h 96% 0 mm 0 W/m2
08:19 5.9 °C 5.3 °C 1030.7 hPa ESE 7.4 km/h 17.7 km/h 96% 0 mm 0 W/m2
08:24 5.9 °C 5.3 °C 1030.7 hPa ESE 8.5 km/h 17.7 km/h 96% 0 mm 0 W/m2
08:29 6.2 °C 5.6 °C 1030.7 hPa East 12.1 km/h 22.5 km/h 96% 0 mm 0 W/m2
08:34 6.2 °C 5.6 °C 1030.7 hPa SE 7.2 km/h 20.9 km/h 96% 0 mm 0 W/m2
08:39 6.2 °C 5.7 °C 1030.7 hPa East 15 km/h 22.5 km/h 96% 0 mm 0 W/m2
08:44 6.3 °C 5.7 °C 1030.7 hPa ESE 6.6 km/h 22.5 km/h 96% 0 mm 5 W/m2
08:49 6.4 °C 5.8 °C 1030.7 hPa ESE 7.6 km/h 17.7 km/h 96% 0 mm 5 W/m2
08:54 6.4 °C 5.8 °C 1031 hPa ESE 11.9 km/h 19.3 km/h 96% 0 mm 5 W/m2
08:59 6.6 °C 6.1 °C 1031 hPa ESE 6.3 km/h 16.1 km/h 96.4% 0 mm 7 W/m2
09:04 6.6 °C 6 °C 1031 hPa SE 5.6 km/h 16.1 km/h 96% 0 mm 9 W/m2
09:09 6.8 °C 6.2 °C 1031 hPa ESE 5.3 km/h 14.5 km/h 96% 0 mm 9 W/m2
09:14 7.1 °C 6.6 °C 1031 hPa SE 2.9 km/h 11.3 km/h 96.6% 0 mm 11 W/m2
09:19 6.8 °C 6.4 °C 1031 hPa ESE 4.8 km/h 11.3 km/h 97% 0 mm 12 W/m2
09:24 6.8 °C 6.3 °C 1031 hPa ESE 4 km/h 12.9 km/h 96.8% 0 mm 16 W/m2
09:29 6.8 °C 6.3 °C 1031 hPa SE 4.5 km/h 11.3 km/h 96.4% 0 mm 18 W/m2
09:34 6.8 °C 6.3 °C 1031 hPa ESE 5.1 km/h 11.3 km/h 96.2% 0 mm 18 W/m2
09:39 6.8 °C 6.2 °C 1031 hPa ESE 8.7 km/h 14.5 km/h 96% 0 mm 21 W/m2
09:44 6.9 °C 6.3 °C 1031 hPa ESE 9 km/h 16.1 km/h 96% 0 mm 19 W/m2
09:49 6.9 °C 6.3 °C 1031 hPa ESE 6 km/h 14.5 km/h 96% 0 mm 19 W/m2
09:54 6.9 °C 6.3 °C 1031 hPa ESE 4.8 km/h 12.9 km/h 96% 0 mm 19 W/m2
09:59 7 °C 6.4 °C 1030.7 hPa ESE 6 km/h 14.5 km/h 96% 0 mm 23 W/m2
10:04 7.1 °C 6.5 °C 1030.7 hPa East 5.8 km/h 14.5 km/h 96% 0 mm 26 W/m2
10:09 7.1 °C 6.5 °C 1031 hPa East 7.9 km/h 16.1 km/h 96% 0 mm 33 W/m2
10:14 7.2 °C 6.6 °C 1031 hPa East 4.5 km/h 17.7 km/h 96% 0 mm 40 W/m2
10:19 7.2 °C 6.6 °C 1031 hPa East 7.4 km/h 14.5 km/h 96% 0 mm 42 W/m2
10:24 7.2 °C 6.6 °C 1031 hPa ESE 6.3 km/h 16.1 km/h 96% 0 mm 46 W/m2
10:29 7.3 °C 6.7 °C 1031.4 hPa East 5.3 km/h 12.9 km/h 96% 0 mm 53 W/m2
10:34 7.3 °C 6.7 °C 1031.4 hPa East 3.9 km/h 11.3 km/h 96% 0 mm 47 W/m2
10:39 7.3 °C 6.7 °C 1031.4 hPa ESE 2.7 km/h 4.8 km/h 96% 0 mm 42 W/m2
10:44 7.4 °C 6.8 °C 1031.4 hPa ESE 3.2 km/h 8 km/h 96% 0 mm 49 W/m2
10:49 7.4 °C 6.8 °C 1031.4 hPa East 3.9 km/h 9.7 km/h 96% 0 mm 56 W/m2
10:54 7.4 °C 6.8 °C 1031.4 hPa ESE 4.8 km/h 11.3 km/h 96% 0 mm 54 W/m2
10:59 7.6 °C 6.9 °C 1031.4 hPa ESE 5.8 km/h 12.9 km/h 96% 0 mm 37 W/m2
11:04 7.6 °C 7 °C 1031.4 hPa ESE 5.5 km/h 12.9 km/h 96% 0 mm 32 W/m2
11:08 7.6 °C 7 °C 1031.4 hPa ESE 3.5 km/h 8 km/h 96% 0 mm 28 W/m2
11:14 7.6 °C 7 °C 1031.4 hPa ESE 5.8 km/h 12.9 km/h 96% 0 mm 39 W/m2
11:19 7.7 °C 7.1 °C 1031 hPa ESE 8.4 km/h 14.5 km/h 96% 0 mm 33 W/m2
11:24 7.8 °C 7.2 °C 1031 hPa SE 8 km/h 16.1 km/h 96% 0 mm 32 W/m2
11:29 7.8 °C 7.2 °C 1031 hPa SE 5.6 km/h 16.1 km/h 96% 0 mm 28 W/m2
11:34 7.8 °C 7.2 °C 1031 hPa SE 7.2 km/h 16.1 km/h 96% 0 mm 32 W/m2
11:39 7.8 °C 7.3 °C 1031 hPa SE 5.8 km/h 14.5 km/h 96% 0 mm 30 W/m2
11:44 7.8 °C 7.3 °C 1031.4 hPa ESE 10.1 km/h 19.3 km/h 96% 0 mm 26 W/m2
11:49 7.8 °C 7.1 °C 1031.4 hPa SSE 10 km/h 19.3 km/h 95.2% 0 mm 32 W/m2
11:54 7.8 °C 7 °C 1031.4 hPa SSE 8.9 km/h 20.9 km/h 95% 0 mm 39 W/m2
11:59 7.8 °C 7 °C 1031.4 hPa SSE 7.7 km/h 20.9 km/h 95% 0 mm 40 W/m2
12:03 7.9 °C 7.1 °C 1031.4 hPa SE 16.1 km/h 27.4 km/h 95% 0 mm 49 W/m2
12:09 7.9 °C 7.1 °C 1031.4 hPa SE 8.2 km/h 27.4 km/h 94.6% 0 mm 47 W/m2
12:14 7.9 °C 7 °C 1031.4 hPa SE 10.6 km/h 17.7 km/h 94% 0 mm 40 W/m2
12:19 7.8 °C 6.9 °C 1031.4 hPa SSE 6 km/h 12.9 km/h 94% 0 mm 23 W/m2
12:24 7.8 °C 6.8 °C 1031.4 hPa SSE 6.6 km/h 12.9 km/h 93.2% 0 mm 30 W/m2
12:29 7.8 °C 6.7 °C 1031.4 hPa SE 7.9 km/h 17.7 km/h 93% 0 mm 37 W/m2
12:34 7.8 °C 6.7 °C 1031 hPa SE 14.8 km/h 25.7 km/h 93% 0 mm 37 W/m2
12:39 7.8 °C 6.7 °C 1031 hPa ESE 12.1 km/h 25.7 km/h 92.6% 0 mm 39 W/m2
12:44 7.8 °C 6.7 °C 1031 hPa SE 6.8 km/h 22.5 km/h 92.4% 0 mm 46 W/m2
12:49 7.8 °C 6.7 °C 1031 hPa SE 6.4 km/h 16.1 km/h 92% 0 mm 33 W/m2
12:54 7.9 °C 6.7 °C 1031 hPa ESE 7.4 km/h 17.7 km/h 92% 0 mm 46 W/m2
12:59 7.9 °C 6.6 °C 1031 hPa ESE 4.7 km/h 16.1 km/h 91.4% 0 mm 51 W/m2
13:04 8.1 °C 6.7 °C 1030.7 hPa ESE 8.5 km/h 16.1 km/h 91.4% 0 mm 56 W/m2
13:09 8.1 °C 6.7 °C 1030.7 hPa ESE 10.1 km/h 17.7 km/h 91% 0 mm 44 W/m2
13:14 8.1 °C 6.7 °C 1030.7 hPa ESE 10.6 km/h 19.3 km/h 91% 0 mm 39 W/m2
13:19 8.1 °C 6.7 °C 1030.7 hPa ESE 7.2 km/h 19.3 km/h 91% 0 mm 35 W/m2
13:24 8.1 °C 6.7 °C 1030.7 hPa ESE 7.2 km/h 16.1 km/h 91% 0 mm 28 W/m2
13:29 8.1 °C 6.6 °C 1030.7 hPa ESE 8 km/h 14.5 km/h 90.2% 0 mm 28 W/m2
13:34 8.1 °C 6.6 °C 1030.7 hPa SE 8 km/h 16.1 km/h 90% 0 mm 33 W/m2
13:39 8.2 °C 6.7 °C 1030.7 hPa ESE 6.3 km/h 14.5 km/h 90% 0 mm 33 W/m2
13:44 8.2 °C 6.7 °C 1030.4 hPa ESE 7.6 km/h 14.5 km/h 90% 0 mm 32 W/m2
13:49 8.2 °C 6.6 °C 1030.4 hPa ESE 8.7 km/h 16.1 km/h 89.2% 0 mm 32 W/m2
13:54 8.3 °C 6.6 °C 1030.4 hPa ESE 6.9 km/h 19.3 km/h 89% 0 mm 23 W/m2
13:59 8.3 °C 6.6 °C 1030.4 hPa ESE 3.5 km/h 12.9 km/h 89% 0 mm 21 W/m2
14:04 8.3 °C 6.6 °C 1030.4 hPa East 6.8 km/h 14.5 km/h 89% 0 mm 19 W/m2
14:09 8.3 °C 6.6 °C 1030.4 hPa SE 6 km/h 14.5 km/h 89% 0 mm 23 W/m2
14:14 8.3 °C 6.6 °C 1030.4 hPa ESE 3.9 km/h 12.9 km/h 89% 0 mm 26 W/m2
14:19 8.3 °C 6.6 °C 1030.4 hPa ESE 5.8 km/h 14.5 km/h 89% 0 mm 26 W/m2
14:24 8.3 °C 6.6 °C 1030 hPa SE 6.4 km/h 12.9 km/h 89% 0 mm 16 W/m2
14:29 8.3 °C 6.6 °C 1030 hPa ESE 6.6 km/h 14.5 km/h 89% 0 mm 19 W/m2
14:34 8.3 °C 6.6 °C 1030 hPa ESE 9 km/h 16.1 km/h 89% 0 mm 14 W/m2
14:39 8.3 °C 6.7 °C 1030.4 hPa ESE 3.9 km/h 12.9 km/h 89% 0 mm 18 W/m2
14:44 8.4 °C 6.7 °C 1030.4 hPa ESE 10.9 km/h 24.1 km/h 89% 0 mm 18 W/m2
14:49 8.4 °C 6.7 °C 1030.4 hPa East 9.5 km/h 24.1 km/h 89% 0 mm 18 W/m2
14:54 8.4 °C 6.7 °C 1030.4 hPa ESE 8.7 km/h 17.7 km/h 89% 0 mm 14 W/m2
14:58 8.3 °C 6.6 °C 1030.4 hPa ESE 4.8 km/h 14.5 km/h 89% 0 mm 14 W/m2
15:04 8.3 °C 6.6 °C 1030.4 hPa SE 8 km/h 16.1 km/h 89% 0 mm 14 W/m2
15:09 8.3 °C 6.6 °C 1030 hPa ESE 8.5 km/h 14.5 km/h 89% 0 mm 12 W/m2
15:14 8.3 °C 6.3 °C 1030 hPa ESE 7.1 km/h 14.5 km/h 88% 0 mm 11 W/m2
15:19 8.3 °C 6.4 °C 1030 hPa East 10.3 km/h 20.9 km/h 88% 0 mm 11 W/m2
15:24 8.3 °C 6.4 °C 1030 hPa ESE 6.8 km/h 14.5 km/h 88% 0 mm 12 W/m2
15:29 8.3 °C 6.4 °C 1030 hPa ESE 6 km/h 19.3 km/h 88% 0 mm 12 W/m2
15:34 8.4 °C 6.5 °C 1030 hPa East 7.9 km/h 17.7 km/h 88% 0 mm 11 W/m2
15:38 8.4 °C 6.5 °C 1030 hPa ESE 7.2 km/h 17.7 km/h 88% 0 mm 11 W/m2
15:44 8.4 °C 6.5 °C 1029.7 hPa East 10.3 km/h 24.1 km/h 88% 0 mm 7 W/m2
15:49 8.4 °C 6.5 °C 1029.7 hPa ESE 5.8 km/h 14.5 km/h 88% 0 mm 7 W/m2
15:54 8.4 °C 6.5 °C 1029.7 hPa East 7.6 km/h 14.5 km/h 88% 0 mm 5 W/m2
15:59 8.4 °C 6.5 °C 1029.7 hPa East 7.2 km/h 14.5 km/h 88% 0 mm 5 W/m2
16:04 8.4 °C 6.5 °C 1029.7 hPa ESE 3.5 km/h 11.3 km/h 88% 0 mm 0 W/m2
16:09 8.4 °C 6.5 °C 1029.7 hPa ESE 4.2 km/h 12.9 km/h 88% 0 mm 0 W/m2
16:14 8.4 °C 6.5 °C 1030 hPa ESE 3.5 km/h 8 km/h 88% 0 mm 0 W/m2
16:19 8.4 °C 6.5 °C 1030 hPa SE 3.4 km/h 8 km/h 88% 0 mm 0 W/m2
16:24 8.4 °C 6.5 °C 1030 hPa ESE 3.9 km/h 8 km/h 88% 0 mm 0 W/m2
16:29 8.4 °C 6.5 °C 1030 hPa ESE 2.7 km/h 11.3 km/h 88% 0 mm 0 W/m2
16:33 8.4 °C 6.7 °C 1030 hPa ESE 4.3 km/h 8 km/h 89% 0 mm 0 W/m2
16:39 8.4 °C 6.7 °C 1030 hPa ESE 3.4 km/h 8 km/h 89% 0 mm 0 W/m2
16:44 8.4 °C 6.7 °C 1030 hPa East 2.1 km/h 6.4 km/h 89% 0 mm 0 W/m2
16:49 8.4 °C 6.7 °C 1030 hPa ENE 3.9 km/h 9.7 km/h 89% 0 mm 0 W/m2
16:54 8.4 °C 6.7 °C 1030 hPa East 3.1 km/h 11.3 km/h 89% 0 mm 0 W/m2
16:59 8.4 °C 6.8 °C 1030 hPa ENE 4.3 km/h 9.7 km/h 89% 0 mm 0 W/m2
17:04 8.5 °C 6.8 °C 1030 hPa East 6.4 km/h 11.3 km/h 89% 0 mm 0 W/m2
17:09 8.5 °C 6.8 °C 1030 hPa East 4 km/h 11.3 km/h 89% 0 mm 0 W/m2
17:14 8.5 °C 6.8 °C 1030 hPa ENE 2.7 km/h 8 km/h 89% 0 mm 0 W/m2
17:19 8.6 °C 6.8 °C 1030 hPa East 2.7 km/h 11.3 km/h 89% 0 mm 0 W/m2
17:24 8.6 °C 6.8 °C 1030 hPa East 3.9 km/h 9.7 km/h 89% 0 mm 0 W/m2
17:29 8.6 °C 6.9 °C 1030 hPa East 3.1 km/h 11.3 km/h 89% 0 mm 0 W/m2
17:34 8.6 °C 6.9 °C 1029.7 hPa ESE 6.8 km/h 12.9 km/h 89% 0 mm 0 W/m2
17:39 8.6 °C 6.9 °C 1029.7 hPa ESE 5.1 km/h 12.9 km/h 89% 0 mm 0 W/m2
17:44 8.6 °C 6.9 °C 1029.7 hPa ESE 8.5 km/h 14.5 km/h 89% 0 mm 0 W/m2
17:49 8.6 °C 6.9 °C 1029.7 hPa East 4.3 km/h 11.3 km/h 89% 0 mm 0 W/m2
17:54 8.6 °C 6.7 °C 1029.7 hPa East 7.9 km/h 14.5 km/h 88% 0 mm 0 W/m2
17:59 8.7 °C 6.8 °C 1029.7 hPa East 5.8 km/h 14.5 km/h 88% 0 mm 0 W/m2
18:04 8.7 °C 6.8 °C 1029.7 hPa East 6.6 km/h 14.5 km/h 88% 0 mm 0 W/m2
18:09 8.7 °C 6.8 °C 1029.7 hPa ENE 9.7 km/h 20.9 km/h 88% 0 mm 0 W/m2
18:14 8.7 °C 6.8 °C 1029.7 hPa ESE 8.9 km/h 14.5 km/h 88% 0 mm 0 W/m2
18:18 8.7 °C 6.8 °C 1029.7 hPa East 4.3 km/h 14.5 km/h 88% 0 mm 0 W/m2
18:24 8.7 °C 6.8 °C 1029.7 hPa ESE 9.7 km/h 17.7 km/h 88% 0 mm 0 W/m2
18:29 8.8 °C 6.8 °C 1030 hPa ESE 8.2 km/h 17.7 km/h 87.6% 0 mm 0 W/m2
18:34 8.8 °C 6.8 °C 1030 hPa ESE 5.1 km/h 14.5 km/h 87% 0 mm 0 W/m2
18:39 8.8 °C 6.8 °C 1030 hPa ESE 7.1 km/h 16.1 km/h 87% 0 mm 0 W/m2
18:44 8.8 °C 6.8 °C 1030 hPa East 8.4 km/h 14.5 km/h 87% 0 mm 0 W/m2
18:49 8.8 °C 6.8 °C 1030 hPa ESE 6.9 km/h 16.1 km/h 87% 0 mm 0 W/m2
18:54 8.9 °C 6.8 °C 1030 hPa ESE 8.9 km/h 17.7 km/h 86.8% 0 mm 0 W/m2
18:59 8.8 °C 6.7 °C 1029.7 hPa ESE 9 km/h 16.1 km/h 86.2% 0 mm 0 W/m2
19:04 8.8 °C 6.8 °C 1029.7 hPa ESE 7.6 km/h 14.5 km/h 87% 0 mm 0 W/m2
19:09 8.8 °C 6.7 °C 1029.7 hPa ESE 8.4 km/h 14.5 km/h 86.6% 0 mm 0 W/m2
19:14 8.8 °C 6.7 °C 1030 hPa ESE 7.9 km/h 16.1 km/h 86.2% 0 mm 0 W/m2
19:19 8.8 °C 6.6 °C 1029.7 hPa ESE 4.5 km/h 16.1 km/h 86% 0 mm 0 W/m2
19:24 8.7 °C 6.6 °C 1030 hPa ESE 8.4 km/h 17.7 km/h 86% 0 mm 0 W/m2
19:29 8.7 °C 6.6 °C 1030 hPa ESE 5.6 km/h 17.7 km/h 86% 0 mm 0 W/m2
19:34 8.7 °C 6.5 °C 1029.7 hPa East 7.1 km/h 17.7 km/h 86% 0 mm 0 W/m2
19:39 8.7 °C 6.4 °C 1029.7 hPa East 8.2 km/h 17.7 km/h 86% 0 mm 0 W/m2
19:44 8.6 °C 6.4 °C 1029.7 hPa East 6 km/h 11.3 km/h 86% 0 mm 0 W/m2
19:49 8.6 °C 6.4 °C 1029.7 hPa East 7.9 km/h 19.3 km/h 86% 0 mm 0 W/m2
19:54 8.6 °C 6.4 °C 1029.7 hPa East 9.3 km/h 19.3 km/h 86% 0 mm 0 W/m2
19:59 8.5 °C 6.3 °C 1030 hPa East 9.8 km/h 16.1 km/h 86% 0 mm 0 W/m2
20:04 8.5 °C 6.3 °C 1030 hPa East 7.4 km/h 16.1 km/h 86% 0 mm 0 W/m2
20:09 8.4 °C 6.2 °C 1030 hPa ESE 6 km/h 14.5 km/h 86% 0 mm 0 W/m2
20:14 8.4 °C 6.2 °C 1030 hPa East 6.8 km/h 12.9 km/h 86% 0 mm 0 W/m2
20:19 8.4 °C 6.2 °C 1030 hPa SE 7.7 km/h 16.1 km/h 86% 0 mm 0 W/m2
20:24 8.4 °C 6.2 °C 1030 hPa ESE 4.5 km/h 16.1 km/h 86% 0 mm 0 W/m2
20:29 8.4 °C 6.2 °C 1030 hPa SE 5.1 km/h 14.5 km/h 86% 0 mm 0 W/m2
20:34 8.4 °C 6.2 °C 1030 hPa ESE 5.1 km/h 12.9 km/h 86% 0 mm 0 W/m2
20:39 8.4 °C 6.2 °C 1030 hPa ESE 5 km/h 11.3 km/h 86% 0 mm 0 W/m2
20:44 8.3 °C 6.1 °C 1030 hPa East 6 km/h 12.9 km/h 86% 0 mm 0 W/m2
20:49 8.3 °C 6.1 °C 1030 hPa SE 4.5 km/h 12.9 km/h 86% 0 mm 0 W/m2
20:54 8.2 °C 6 °C 1030 hPa SE 4.8 km/h 8 km/h 86% 0 mm 0 W/m2
20:59 8.2 °C 6 °C 1030 hPa SE 5.8 km/h 11.3 km/h 86% 0 mm 0 W/m2
21:04 8.1 °C 5.9 °C 1030 hPa SSE 7.7 km/h 16.1 km/h 86% 0 mm 0 W/m2
21:09 8.1 °C 5.9 °C 1029.7 hPa SE 6.4 km/h 11.3 km/h 86% 0 mm 0 W/m2
21:14 7.9 °C 5.8 °C 1029.7 hPa SE 4.3 km/h 9.7 km/h 86% 0 mm 0 W/m2
21:19 7.9 °C 5.7 °C 1029.7 hPa ESE 6 km/h 9.7 km/h 86% 0 mm 0 W/m2
21:24 7.9 °C 5.7 °C 1030 hPa SE 4.3 km/h 8 km/h 86% 0 mm 0 W/m2
21:29 7.8 °C 5.6 °C 1030 hPa SE 4 km/h 14.5 km/h 86% 0 mm 0 W/m2
21:34 7.7 °C 5.3 °C 1030 hPa ESE 7.2 km/h 14.5 km/h 85% 0 mm 0 W/m2
21:39 7.7 °C 5.3 °C 1030 hPa SE 6 km/h 16.1 km/h 85% 0 mm 0 W/m2
21:44 7.7 °C 5.3 °C 1030 hPa ESE 5.3 km/h 17.7 km/h 85% 0 mm 0 W/m2
21:49 7.8 °C 5.4 °C 1030 hPa ESE 8.2 km/h 14.5 km/h 85% 0 mm 0 W/m2
21:54 7.8 °C 5.3 °C 1030 hPa SE 4.5 km/h 12.9 km/h 84.6% 0 mm 0 W/m2
21:59 7.8 °C 5.3 °C 1030 hPa East 8.7 km/h 16.1 km/h 84.2% 0 mm 0 W/m2
22:04 7.8 °C 5.3 °C 1029.7 hPa SE 7.7 km/h 14.5 km/h 84% 0 mm 0 W/m2
22:09 7.8 °C 5.3 °C 1029.7 hPa ESE 4.7 km/h 8 km/h 84% 0 mm 0 W/m2
22:14 7.8 °C 5.3 °C 1029.7 hPa ESE 8.2 km/h 12.9 km/h 84% 0 mm 0 W/m2
22:19 7.8 °C 5.3 °C 1029.7 hPa East 7.4 km/h 14.5 km/h 84% 0 mm 0 W/m2
22:24 7.8 °C 5.4 °C 1029.7 hPa ESE 5.1 km/h 12.9 km/h 84.8% 0 mm 0 W/m2
22:29 7.8 °C 5.3 °C 1029.7 hPa ESE 5.8 km/h 14.5 km/h 85% 0 mm 0 W/m2
22:34 7.7 °C 5.3 °C 1029.7 hPa East 5 km/h 14.5 km/h 85% 0 mm 0 W/m2
22:39 7.7 °C 5.3 °C 1029.7 hPa East 8.7 km/h 17.7 km/h 85% 0 mm 0 W/m2
22:44 7.7 °C 5.2 °C 1029.7 hPa East 8.5 km/h 16.1 km/h 85% 0 mm 0 W/m2
22:49 7.6 °C 5.2 °C 1029.7 hPa East 6.1 km/h 12.9 km/h 85% 0 mm 0 W/m2
22:54 7.6 °C 5.2 °C 1029.7 hPa East 8 km/h 16.1 km/h 85% 0 mm 0 W/m2
22:59 7.6 °C 5.2 °C 1029.3 hPa East 4.7 km/h 14.5 km/h 85% 0 mm 0 W/m2
23:04 7.6 °C 5.2 °C 1029.7 hPa East 9.3 km/h 16.1 km/h 85% 0 mm 0 W/m2
23:09 7.6 °C 5.2 °C 1029.7 hPa SE 5.6 km/h 16.1 km/h 85% 0 mm 0 W/m2
23:14 7.5 °C 5.1 °C 1029.3 hPa ESE 6 km/h 12.9 km/h 85% 0 mm 0 W/m2
23:19 7.5 °C 5.1 °C 1029.3 hPa ESE 6.4 km/h 12.9 km/h 85% 0 mm 0 W/m2
23:24 7.5 °C 5.1 °C 1029.3 hPa ESE 5.8 km/h 12.9 km/h 85% 0 mm 0 W/m2
23:29 7.4 °C 5.1 °C 1029.3 hPa East 8.5 km/h 16.1 km/h 85.4% 0 mm 0 W/m2
23:34 7.4 °C 5.2 °C 1029.3 hPa ESE 6.3 km/h 16.1 km/h 86% 0 mm 0 W/m2
23:39 7.4 °C 5.2 °C 1029.3 hPa East 9.8 km/h 16.1 km/h 86% 0 mm 0 W/m2
23:44 7.4 °C 5.2 °C 1029.3 hPa ESE 7.1 km/h 16.1 km/h 86% 0 mm 0 W/m2
23:49 7.4 °C 5.2 °C 1029.3 hPa ESE 7.1 km/h 16.1 km/h 85.8% 0 mm 0 W/m2
23:54 7.3 °C 5 °C 1029.3 hPa ESE 4 km/h 11.3 km/h 85.4% 0 mm 0 W/m2
23:59 7.3 °C 5 °C 1029.3 hPa ESE 8.4 km/h 16.1 km/h 85.6% 0 mm 0 W/m2
Bath Spa Weather
Compliments of Weather Underground - 2 mb